sensor_id;sensor_type;location;lat;lon;timestamp;temperature;humidity
46634;DHT22;32362;49.986;8.026;2022-08-03T00:24:51;22.80;63.30
46634;DHT22;32362;49.986;8.026;2022-08-03T00:51:32;22.50;64.00
46634;DHT22;32362;49.986;8.026;2022-08-03T01:18:16;21.90;66.60
46634;DHT22;32362;49.986;8.026;2022-08-03T01:44:58;21.60;67.00
46634;DHT22;32362;49.986;8.026;2022-08-03T02:11:40;21.00;68.80
46634;DHT22;32362;49.986;8.026;2022-08-03T02:38:25;21.00;68.70
46634;DHT22;32362;49.986;8.026;2022-08-03T03:05:09;20.50;70.80
46634;DHT22;32362;49.986;8.026;2022-08-03T03:31:50;20.00;72.30
46634;DHT22;32362;49.986;8.026;2022-08-03T03:58:32;20.00;72.20
46634;DHT22;32362;49.986;8.026;2022-08-03T04:25:13;19.20;74.60
46634;DHT22;32362;49.986;8.026;2022-08-03T04:51:57;19.10;75.30
46634;DHT22;32362;49.986;8.026;2022-08-03T05:18:39;19.10;75.50
46634;DHT22;32362;49.986;8.026;2022-08-03T05:45:20;20.10;75.50
46634;DHT22;32362;49.986;8.026;2022-08-03T06:12:01;20.10;75.00
46634;DHT22;32362;49.986;8.026;2022-08-03T06:38:41;20.90;73.40
46634;DHT22;32362;49.986;8.026;2022-08-03T07:05:22;22.80;79.30
46634;DHT22;32362;49.986;8.026;2022-08-03T07:32:03;23.40;69.80
46634;DHT22;32362;49.986;8.026;2022-08-03T08:25:25;25.70;71.90
46634;DHT22;32362;49.986;8.026;2022-08-03T08:52:07;27.30;66.70
46634;DHT22;32362;49.986;8.026;2022-08-03T09:18:50;26.90;55.60
46634;DHT22;32362;49.986;8.026;2022-08-03T09:45:33;28.90;52.20
46634;DHT22;32362;49.986;8.026;2022-08-03T10:12:14;31.20;45.60
46634;DHT22;32362;49.986;8.026;2022-08-03T10:38:55;32.00;44.50
46634;DHT22;32362;49.986;8.026;2022-08-03T11:05:41;31.90;45.10
46634;DHT22;32362;49.986;8.026;2022-08-03T11:59:32;33.50;43.80
46634;DHT22;32362;49.986;8.026;2022-08-03T12:26:13;34.20;51.30
46634;DHT22;32362;49.986;8.026;2022-08-03T12:52:55;34.80;41.50
46634;DHT22;32362;49.986;8.026;2022-08-03T13:19:37;35.40;38.50
46634;DHT22;32362;49.986;8.026;2022-08-03T13:46:18;36.80;43.10
46634;DHT22;32362;49.986;8.026;2022-08-03T14:39:41;39.30;34.10
46634;DHT22;32362;49.986;8.026;2022-08-03T15:06:23;40.80;33.80
46634;DHT22;32362;49.986;8.026;2022-08-03T15:33:04;39.80;31.10
46634;DHT22;32362;49.986;8.026;2022-08-03T15:59:45;41.10;32.50
46634;DHT22;32362;49.986;8.026;2022-08-03T16:26:26;41.40;46.00
46634;DHT22;32362;49.986;8.026;2022-08-03T16:53:08;41.30;33.70
46634;DHT22;32362;49.986;8.026;2022-08-03T17:19:50;41.20;32.00
46634;DHT22;32362;49.986;8.026;2022-08-03T17:46:31;40.30;46.30
46634;DHT22;32362;49.986;8.026;2022-08-03T18:13:21;38.60;33.90
46634;DHT22;32362;49.986;8.026;2022-08-03T18:40:03;36.30;36.30
46634;DHT22;32362;49.986;8.026;2022-08-03T19:06:47;35.20;38.30
46634;DHT22;32362;49.986;8.026;2022-08-03T19:33:29;33.50;42.00
46634;DHT22;32362;49.986;8.026;2022-08-03T20:00:11;32.50;45.20
46634;DHT22;32362;49.986;8.026;2022-08-03T20:26:54;30.30;52.70
46634;DHT22;32362;49.986;8.026;2022-08-03T20:53:38;29.90;50.70
46634;DHT22;32362;49.986;8.026;2022-08-03T21:20:21;29.70;50.10
46634;DHT22;32362;49.986;8.026;2022-08-03T21:47:02;29.20;50.90
46634;DHT22;32362;49.986;8.026;2022-08-03T22:13:43;28.60;52.80
46634;DHT22;32362;49.986;8.026;2022-08-03T22:40:25;27.90;54.20
46634;DHT22;32362;49.986;8.026;2022-08-03T23:07:07;27.00;55.80
46634;DHT22;32362;49.986;8.026;2022-08-03T23:33:50;25.80;58.10
